sensor_id;sensor_type;location;lat;lon;timestamp;P1;durP1;ratioP1;P2;durP2;ratioP2
25435;SDS011;13363;52.772;-3.890;2023-03-05T00:02:07;4.73;;;3.13;;
25435;SDS011;13363;52.772;-3.890;2023-03-05T00:04:33;3.00;;;2.23;;
25435;SDS011;13363;52.772;-3.890;2023-03-05T00:06:59;3.07;;;2.17;;
25435;SDS011;13363;52.772;-3.890;2023-03-05T00:09:24;1.97;;;1.87;;
25435;SDS011;13363;52.772;-3.890;2023-03-05T00:11:50;1.70;;;1.60;;
25435;SDS011;13363;52.772;-3.890;2023-03-05T00:14:17;3.30;;;2.40;;
25435;SDS011;13363;52.772;-3.890;2023-03-05T00:16:43;2.60;;;2.30;;
25435;SDS011;13363;52.772;-3.890;2023-03-05T00:19:08;3.37;;;3.00;;
25435;SDS011;13363;52.772;-3.890;2023-03-05T00:21:35;2.50;;;2.30;;
25435;SDS011;13363;52.772;-3.890;2023-03-05T00:24:04;5.33;;;2.50;;
25435;SDS011;13363;52.772;-3.890;2023-03-05T00:26:34;3.87;;;2.33;;
25435;SDS011;13363;52.772;-3.890;2023-03-05T00:29:01;3.40;;;2.47;;
25435;SDS011;13363;52.772;-3.890;2023-03-05T00:31:28;2.00;;;1.90;;
25435;SDS011;13363;52.772;-3.890;2023-03-05T00:33:56;2.80;;;2.10;;
25435;SDS011;13363;52.772;-3.890;2023-03-05T00:36:24;2.20;;;2.10;;
25435;SDS011;13363;52.772;-3.890;2023-03-05T00:38:51;2.30;;;2.10;;
25435;SDS011;13363;52.772;-3.890;2023-03-05T00:41:17;2.40;;;2.17;;
25435;SDS011;13363;52.772;-3.890;2023-03-05T00:43:43;2.60;;;2.40;;
25435;SDS011;13363;52.772;-3.890;2023-03-05T00:46:08;3.50;;;2.50;;
25435;SDS011;13363;52.772;-3.890;2023-03-05T00:48:34;2.07;;;1.80;;
25435;SDS011;13363;52.772;-3.890;2023-03-05T00:51:00;3.07;;;1.80;;
25435;SDS011;13363;52.772;-3.890;2023-03-05T00:53:26;2.00;;;1.90;;
25435;SDS011;13363;52.772;-3.890;2023-03-05T00:55:52;2.07;;;1.87;;
25435;SDS011;13363;52.772;-3.890;2023-03-05T00:58:17;2.17;;;2.00;;
25435;SDS011;13363;52.772;-3.890;2023-03-05T01:00:43;2.33;;;2.10;;
25435;SDS011;13363;52.772;-3.890;2023-03-05T01:03:09;1.90;;;1.80;;
25435;SDS011;13363;52.772;-3.890;2023-03-05T01:05:34;2.80;;;1.60;;
25435;SDS011;13363;52.772;-3.890;2023-03-05T01:08:00;1.97;;;1.83;;
25435;SDS011;13363;52.772;-3.890;2023-03-05T01:10:26;2.13;;;2.03;;
25435;SDS011;13363;52.772;-3.890;2023-03-05T01:12:53;2.17;;;1.97;;
25435;SDS011;13363;52.772;-3.890;2023-03-05T01:15:20;2.40;;;1.80;;
25435;SDS011;13363;52.772;-3.890;2023-03-05T01:17:46;2.37;;;1.90;;
25435;SDS011;13363;52.772;-3.890;2023-03-05T01:20:13;1.90;;;1.77;;
25435;SDS011;13363;52.772;-3.890;2023-03-05T01:22:41;2.07;;;1.97;;
25435;SDS011;13363;52.772;-3.890;2023-03-05T01:25:06;1.80;;;1.70;;
25435;SDS011;13363;52.772;-3.890;2023-03-05T01:27:33;2.20;;;2.00;;
25435;SDS011;13363;52.772;-3.890;2023-03-05T01:29:59;2.27;;;2.17;;
25435;SDS011;13363;52.772;-3.890;2023-03-05T01:32:24;2.77;;;2.07;;
25435;SDS011;13363;52.772;-3.890;2023-03-05T01:34:50;2.90;;;1.90;;
25435;SDS011;13363;52.772;-3.890;2023-03-05T01:37:16;2.40;;;2.00;;
25435;SDS011;13363;52.772;-3.890;2023-03-05T01:39:41;1.93;;;1.80;;
25435;SDS011;13363;52.772;-3.890;2023-03-05T01:42:07;2.17;;;2.07;;
25435;SDS011;13363;52.772;-3.890;2023-03-05T01:44:33;1.70;;;1.60;;
25435;SDS011;13363;52.772;-3.890;2023-03-05T01:46:59;1.90;;;1.80;;
25435;SDS011;13363;52.772;-3.890;2023-03-05T01:49:26;3.40;;;1.80;;
25435;SDS011;13363;52.772;-3.890;2023-03-05T01:52:08;3.37;;;1.70;;
25435;SDS011;13363;52.772;-3.890;2023-03-05T01:54:39;1.63;;;1.53;;
25435;SDS011;13363;52.772;-3.890;2023-03-05T01:57:13;2.17;;;2.07;;
25435;SDS011;13363;52.772;-3.890;2023-03-05T01:59:42;1.80;;;1.70;;
25435;SDS011;13363;52.772;-3.890;2023-03-05T02:02:11;1.90;;;1.80;;
25435;SDS011;13363;52.772;-3.890;2023-03-05T02:04:41;2.53;;;1.90;;
25435;SDS011;13363;52.772;-3.890;2023-03-05T02:07:14;3.27;;;1.80;;
25435;SDS011;13363;52.772;-3.890;2023-03-05T02:09:41;2.10;;;1.90;;
25435;SDS011;13363;52.772;-3.890;2023-03-05T02:12:08;1.80;;;1.70;;
25435;SDS011;13363;52.772;-3.890;2023-03-05T02:14:35;3.87;;;1.80;;
25435;SDS011;13363;52.772;-3.890;2023-03-05T02:17:02;2.00;;;1.90;;
25435;SDS011;13363;52.772;-3.890;2023-03-05T02:19:28;8.00;;;2.00;;
25435;SDS011;13363;52.772;-3.890;2023-03-05T02:21:53;1.80;;;1.70;;
25435;SDS011;13363;52.772;-3.890;2023-03-05T02:27:15;1.87;;;1.77;;
25435;SDS011;13363;52.772;-3.890;2023-03-05T02:29:43;2.17;;;2.03;;
25435;SDS011;13363;52.772;-3.890;2023-03-05T02:32:10;2.10;;;1.70;;
25435;SDS011;13363;52.772;-3.890;2023-03-05T02:34:37;3.33;;;1.80;;
25435;SDS011;13363;52.772;-3.890;2023-03-05T02:37:03;2.70;;;1.87;;
25435;SDS011;13363;52.772;-3.890;2023-03-05T02:39:30;1.90;;;1.40;;
25435;SDS011;13363;52.772;-3.890;2023-03-05T02:41:56;2.40;;;1.60;;
25435;SDS011;13363;52.772;-3.890;2023-03-05T02:44:21;1.57;;;1.47;;
25435;SDS011;13363;52.772;-3.890;2023-03-05T02:46:47;2.23;;;1.30;;
25435;SDS011;13363;52.772;-3.890;2023-03-05T02:49:13;1.43;;;1.30;;
25435;SDS011;13363;52.772;-3.890;2023-03-05T02:51:39;2.40;;;1.90;;
25435;SDS011;13363;52.772;-3.890;2023-03-05T02:54:05;1.63;;;1.53;;
25435;SDS011;13363;52.772;-3.890;2023-03-05T02:56:31;1.90;;;1.77;;
25435;SDS011;13363;52.772;-3.890;2023-03-05T02:58:57;3.17;;;2.20;;
25435;SDS011;13363;52.772;-3.890;2023-03-05T03:01:22;1.67;;;1.60;;
25435;SDS011;13363;52.772;-3.890;2023-03-05T03:03:48;2.90;;;1.97;;
25435;SDS011;13363;52.772;-3.890;2023-03-05T03:06:14;2.70;;;1.60;;
25435;SDS011;13363;52.772;-3.890;2023-03-05T03:08:39;1.70;;;1.53;;
25435;SDS011;13363;52.772;-3.890;2023-03-05T03:11:08;1.73;;;1.50;;
25435;SDS011;13363;52.772;-3.890;2023-03-05T03:13:36;1.67;;;1.57;;
25435;SDS011;13363;52.772;-3.890;2023-03-05T03:16:03;2.10;;;1.90;;
25435;SDS011;13363;52.772;-3.890;2023-03-05T03:18:30;2.50;;;1.87;;
25435;SDS011;13363;52.772;-3.890;2023-03-05T03:20:56;3.03;;;1.50;;
25435;SDS011;13363;52.772;-3.890;2023-03-05T03:23:22;1.80;;;1.70;;
25435;SDS011;13363;52.772;-3.890;2023-03-05T03:25:48;2.47;;;1.60;;
25435;SDS011;13363;52.772;-3.890;2023-03-05T03:28:14;2.57;;;1.40;;
25435;SDS011;13363;52.772;-3.890;2023-03-05T03:30:39;1.63;;;1.43;;
25435;SDS011;13363;52.772;-3.890;2023-03-05T03:33:05;1.37;;;1.27;;
25435;SDS011;13363;52.772;-3.890;2023-03-05T03:35:31;1.60;;;1.50;;
25435;SDS011;13363;52.772;-3.890;2023-03-05T03:37:57;1.77;;;1.40;;
25435;SDS011;13363;52.772;-3.890;2023-03-05T03:40:22;1.23;;;1.10;;
25435;SDS011;13363;52.772;-3.890;2023-03-05T03:42:50;4.10;;;1.50;;
25435;SDS011;13363;52.772;-3.890;2023-03-05T03:45:16;1.73;;;1.63;;
25435;SDS011;13363;52.772;-3.890;2023-03-05T03:47:42;1.87;;;1.60;;
25435;SDS011;13363;52.772;-3.890;2023-03-05T03:50:07;1.60;;;1.50;;
25435;SDS011;13363;52.772;-3.890;2023-03-05T03:52:34;2.23;;;1.60;;
25435;SDS011;13363;52.772;-3.890;2023-03-05T03:54:59;1.43;;;1.17;;
25435;SDS011;13363;52.772;-3.890;2023-03-05T03:57:29;1.40;;;1.30;;
25435;SDS011;13363;52.772;-3.890;2023-03-05T03:59:55;2.97;;;1.60;;
25435;SDS011;13363;52.772;-3.890;2023-03-05T04:02:21;1.80;;;1.70;;
25435;SDS011;13363;52.772;-3.890;2023-03-05T04:04:47;3.40;;;1.57;;
25435;SDS011;13363;52.772;-3.890;2023-03-05T04:07:13;1.33;;;1.33;;
25435;SDS011;13363;52.772;-3.890;2023-03-05T04:09:38;1.63;;;1.50;;
25435;SDS011;13363;52.772;-3.890;2023-03-05T04:12:04;1.40;;;1.30;;
25435;SDS011;13363;52.772;-3.890;2023-03-05T04:14:30;3.30;;;1.50;;
25435;SDS011;13363;52.772;-3.890;2023-03-05T04:16:56;1.50;;;1.40;;
25435;SDS011;13363;52.772;-3.890;2023-03-05T04:19:21;1.70;;;1.60;;
25435;SDS011;13363;52.772;-3.890;2023-03-05T04:21:47;1.67;;;1.53;;
25435;SDS011;13363;52.772;-3.890;2023-03-05T04:24:13;1.70;;;1.60;;
25435;SDS011;13363;52.772;-3.890;2023-03-05T04:26:39;1.30;;;1.30;;
25435;SDS011;13363;52.772;-3.890;2023-03-05T04:29:04;1.40;;;1.40;;
25435;SDS011;13363;52.772;-3.890;2023-03-05T04:31:30;1.50;;;1.40;;
25435;SDS011;13363;52.772;-3.890;2023-03-05T04:33:56;1.97;;;1.23;;
25435;SDS011;13363;52.772;-3.890;2023-03-05T04:36:21;1.83;;;1.73;;
25435;SDS011;13363;52.772;-3.890;2023-03-05T04:38:47;1.80;;;1.70;;
25435;SDS011;13363;52.772;-3.890;2023-03-05T04:41:13;1.60;;;1.50;;
25435;SDS011;13363;52.772;-3.890;2023-03-05T04:43:38;2.00;;;1.70;;
25435;SDS011;13363;52.772;-3.890;2023-03-05T04:46:04;2.20;;;2.07;;
25435;SDS011;13363;52.772;-3.890;2023-03-05T04:48:29;2.93;;;1.73;;
25435;SDS011;13363;52.772;-3.890;2023-03-05T04:50:55;1.40;;;1.30;;
25435;SDS011;13363;52.772;-3.890;2023-03-05T04:53:22;1.53;;;1.43;;
25435;SDS011;13363;52.772;-3.890;2023-03-05T04:55:51;2.17;;;1.37;;
25435;SDS011;13363;52.772;-3.890;2023-03-05T04:58:20;1.73;;;1.33;;
25435;SDS011;13363;52.772;-3.890;2023-03-05T05:00:47;2.30;;;2.20;;
25435;SDS011;13363;52.772;-3.890;2023-03-05T05:03:13;2.77;;;1.53;;
25435;SDS011;13363;52.772;-3.890;2023-03-05T05:05:38;3.30;;;1.60;;
25435;SDS011;13363;52.772;-3.890;2023-03-05T05:08:04;1.40;;;1.30;;
25435;SDS011;13363;52.772;-3.890;2023-03-05T05:10:30;3.60;;;1.50;;
25435;SDS011;13363;52.772;-3.890;2023-03-05T05:12:56;2.80;;;1.60;;
25435;SDS011;13363;52.772;-3.890;2023-03-05T05:15:22;2.00;;;1.30;;
25435;SDS011;13363;52.772;-3.890;2023-03-05T05:17:48;1.50;;;1.40;;
25435;SDS011;13363;52.772;-3.890;2023-03-05T05:20:14;1.47;;;1.37;;
25435;SDS011;13363;52.772;-3.890;2023-03-05T05:22:41;2.73;;;1.43;;
25435;SDS011;13363;52.772;-3.890;2023-03-05T05:25:07;2.10;;;1.50;;
25435;SDS011;13363;52.772;-3.890;2023-03-05T05:27:34;1.60;;;1.50;;
25435;SDS011;13363;52.772;-3.890;2023-03-05T05:30:00;1.60;;;1.50;;
25435;SDS011;13363;52.772;-3.890;2023-03-05T05:32:28;1.60;;;1.40;;
25435;SDS011;13363;52.772;-3.890;2023-03-05T05:34:54;1.57;;;1.40;;
25435;SDS011;13363;52.772;-3.890;2023-03-05T05:37:21;1.50;;;1.37;;
25435;SDS011;13363;52.772;-3.890;2023-03-05T05:39:46;1.20;;;1.20;;
25435;SDS011;13363;52.772;-3.890;2023-03-05T05:42:15;3.40;;;1.40;;
25435;SDS011;13363;52.772;-3.890;2023-03-05T05:44:45;2.63;;;1.30;;
25435;SDS011;13363;52.772;-3.890;2023-03-05T05:47:11;1.80;;;1.50;;
25435;SDS011;13363;52.772;-3.890;2023-03-05T05:49:38;1.40;;;1.30;;
25435;SDS011;13363;52.772;-3.890;2023-03-05T05:52:04;1.40;;;1.03;;
25435;SDS011;13363;52.772;-3.890;2023-03-05T05:54:30;1.30;;;1.30;;
25435;SDS011;13363;52.772;-3.890;2023-03-05T05:56:55;1.70;;;1.60;;
25435;SDS011;13363;52.772;-3.890;2023-03-05T05:59:21;0.90;;;0.90;;
25435;SDS011;13363;52.772;-3.890;2023-03-05T06:01:47;1.20;;;1.20;;
25435;SDS011;13363;52.772;-3.890;2023-03-05T06:04:13;2.13;;;1.30;;
25435;SDS011;13363;52.772;-3.890;2023-03-05T06:06:38;1.60;;;1.50;;
25435;SDS011;13363;52.772;-3.890;2023-03-05T06:09:04;1.60;;;1.57;;
25435;SDS011;13363;52.772;-3.890;2023-03-05T06:11:30;2.17;;;1.40;;
25435;SDS011;13363;52.772;-3.890;2023-03-05T06:13:56;2.37;;;1.50;;
25435;SDS011;13363;52.772;-3.890;2023-03-05T06:16:22;1.63;;;1.53;;
25435;SDS011;13363;52.772;-3.890;2023-03-05T06:18:49;1.80;;;1.70;;
25435;SDS011;13363;52.772;-3.890;2023-03-05T06:21:16;1.73;;;1.63;;
25435;SDS011;13363;52.772;-3.890;2023-03-05T06:23:44;1.90;;;1.80;;
25435;SDS011;13363;52.772;-3.890;2023-03-05T06:26:11;2.60;;;1.60;;
25435;SDS011;13363;52.772;-3.890;2023-03-05T06:28:39;1.77;;;1.50;;
25435;SDS011;13363;52.772;-3.890;2023-03-05T06:31:09;2.43;;;2.03;;
25435;SDS011;13363;52.772;-3.890;2023-03-05T06:33:39;2.40;;;2.20;;
25435;SDS011;13363;52.772;-3.890;2023-03-05T06:36:07;1.90;;;1.80;;
25435;SDS011;13363;52.772;-3.890;2023-03-05T06:38:34;1.70;;;1.60;;
25435;SDS011;13363;52.772;-3.890;2023-03-05T06:41:02;1.27;;;1.27;;
25435;SDS011;13363;52.772;-3.890;2023-03-05T06:43:33;1.70;;;1.60;;
25435;SDS011;13363;52.772;-3.890;2023-03-05T06:46:08;3.23;;;1.57;;
25435;SDS011;13363;52.772;-3.890;2023-03-05T06:48:37;3.63;;;1.90;;
25435;SDS011;13363;52.772;-3.890;2023-03-05T06:51:03;1.70;;;1.60;;
25435;SDS011;13363;52.772;-3.890;2023-03-05T06:53:29;1.90;;;1.80;;
25435;SDS011;13363;52.772;-3.890;2023-03-05T06:55:55;1.70;;;1.60;;
25435;SDS011;13363;52.772;-3.890;2023-03-05T06:58:21;1.70;;;1.60;;
25435;SDS011;13363;52.772;-3.890;2023-03-05T07:00:47;2.03;;;1.47;;
25435;SDS011;13363;52.772;-3.890;2023-03-05T07:03:13;2.87;;;1.40;;
25435;SDS011;13363;52.772;-3.890;2023-03-05T07:05:42;1.70;;;1.50;;
25435;SDS011;13363;52.772;-3.890;2023-03-05T07:08:08;1.63;;;1.53;;
25435;SDS011;13363;52.772;-3.890;2023-03-05T07:10:38;1.67;;;1.57;;
25435;SDS011;13363;52.772;-3.890;2023-03-05T07:13:05;2.20;;;1.40;;
25435;SDS011;13363;52.772;-3.890;2023-03-05T07:15:32;1.57;;;1.47;;
25435;SDS011;13363;52.772;-3.890;2023-03-05T07:17:58;1.73;;;1.63;;
25435;SDS011;13363;52.772;-3.890;2023-03-05T07:20:23;2.23;;;1.30;;
25435;SDS011;13363;52.772;-3.890;2023-03-05T07:22:49;1.50;;;1.40;;
25435;SDS011;13363;52.772;-3.890;2023-03-05T07:25:15;1.43;;;1.37;;
25435;SDS011;13363;52.772;-3.890;2023-03-05T07:27:45;2.20;;;1.67;;
25435;SDS011;13363;52.772;-3.890;2023-03-05T07:30:11;3.33;;;1.77;;
25435;SDS011;13363;52.772;-3.890;2023-03-05T07:32:38;1.43;;;1.33;;
25435;SDS011;13363;52.772;-3.890;2023-03-05T07:35:04;1.40;;;1.40;;
25435;SDS011;13363;52.772;-3.890;2023-03-05T07:37:30;2.40;;;1.80;;
25435;SDS011;13363;52.772;-3.890;2023-03-05T07:39:55;1.37;;;1.30;;
25435;SDS011;13363;52.772;-3.890;2023-03-05T07:42:21;1.70;;;1.60;;
25435;SDS011;13363;52.772;-3.890;2023-03-05T07:44:47;1.80;;;1.70;;
25435;SDS011;13363;52.772;-3.890;2023-03-05T07:47:13;2.07;;;1.40;;
25435;SDS011;13363;52.772;-3.890;2023-03-05T07:49:39;4.03;;;1.87;;
25435;SDS011;13363;52.772;-3.890;2023-03-05T07:52:07;1.67;;;1.33;;
25435;SDS011;13363;52.772;-3.890;2023-03-05T07:54:33;2.00;;;1.70;;
25435;SDS011;13363;52.772;-3.890;2023-03-05T07:57:05;3.23;;;1.73;;
25435;SDS011;13363;52.772;-3.890;2023-03-05T07:59:32;1.50;;;1.40;;
25435;SDS011;13363;52.772;-3.890;2023-03-05T08:01:58;1.43;;;1.30;;
25435;SDS011;13363;52.772;-3.890;2023-03-05T08:04:24;1.67;;;1.57;;
25435;SDS011;13363;52.772;-3.890;2023-03-05T08:06:50;2.07;;;1.70;;
25435;SDS011;13363;52.772;-3.890;2023-03-05T08:09:16;2.67;;;2.43;;
25435;SDS011;13363;52.772;-3.890;2023-03-05T08:11:42;7.00;;;2.83;;
25435;SDS011;13363;52.772;-3.890;2023-03-05T08:14:08;2.80;;;2.40;;
25435;SDS011;13363;52.772;-3.890;2023-03-05T08:16:35;2.30;;;1.70;;
25435;SDS011;13363;52.772;-3.890;2023-03-05T08:19:02;1.40;;;1.30;;
25435;SDS011;13363;52.772;-3.890;2023-03-05T08:21:29;1.27;;;1.27;;
25435;SDS011;13363;52.772;-3.890;2023-03-05T08:23:57;2.10;;;1.40;;
25435;SDS011;13363;52.772;-3.890;2023-03-05T08:26:24;1.47;;;1.40;;
25435;SDS011;13363;52.772;-3.890;2023-03-05T08:28:52;4.97;;;3.73;;
25435;SDS011;13363;52.772;-3.890;2023-03-05T08:31:21;3.67;;;2.20;;
25435;SDS011;13363;52.772;-3.890;2023-03-05T08:33:48;3.77;;;2.10;;
25435;SDS011;13363;52.772;-3.890;2023-03-05T08:36:15;2.43;;;2.23;;
25435;SDS011;13363;52.772;-3.890;2023-03-05T08:38:40;1.63;;;1.53;;
25435;SDS011;13363;52.772;-3.890;2023-03-05T08:41:08;2.73;;;2.53;;
25435;SDS011;13363;52.772;-3.890;2023-03-05T08:43:34;3.97;;;2.63;;
25435;SDS011;13363;52.772;-3.890;2023-03-05T08:46:01;3.03;;;2.77;;
25435;SDS011;13363;52.772;-3.890;2023-03-05T08:48:27;1.63;;;1.53;;
25435;SDS011;13363;52.772;-3.890;2023-03-05T08:50:55;2.10;;;1.53;;
25435;SDS011;13363;52.772;-3.890;2023-03-05T08:53:22;1.87;;;1.60;;
25435;SDS011;13363;52.772;-3.890;2023-03-05T08:55:54;3.10;;;2.60;;
25435;SDS011;13363;52.772;-3.890;2023-03-05T08:58:20;3.67;;;3.27;;
25435;SDS011;13363;52.772;-3.890;2023-03-05T09:00:46;3.40;;;3.10;;
25435;SDS011;13363;52.772;-3.890;2023-03-05T09:03:12;3.90;;;2.07;;
25435;SDS011;13363;52.772;-3.890;2023-03-05T09:05:38;1.80;;;1.70;;
25435;SDS011;13363;52.772;-3.890;2023-03-05T09:08:03;1.80;;;1.70;;
25435;SDS011;13363;52.772;-3.890;2023-03-05T09:10:29;2.20;;;1.70;;
25435;SDS011;13363;52.772;-3.890;2023-03-05T09:12:55;2.77;;;2.57;;
25435;SDS011;13363;52.772;-3.890;2023-03-05T09:15:23;1.83;;;1.73;;
25435;SDS011;13363;52.772;-3.890;2023-03-05T09:17:49;3.83;;;2.00;;
25435;SDS011;13363;52.772;-3.890;2023-03-05T09:20:15;2.43;;;2.03;;
25435;SDS011;13363;52.772;-3.890;2023-03-05T09:22:41;2.43;;;2.23;;
25435;SDS011;13363;52.772;-3.890;2023-03-05T09:25:07;2.90;;;1.83;;
25435;SDS011;13363;52.772;-3.890;2023-03-05T09:27:36;1.67;;;1.47;;
25435;SDS011;13363;52.772;-3.890;2023-03-05T09:30:02;1.57;;;1.47;;
25435;SDS011;13363;52.772;-3.890;2023-03-05T09:32:29;2.80;;;1.40;;
25435;SDS011;13363;52.772;-3.890;2023-03-05T09:34:56;1.60;;;1.50;;
25435;SDS011;13363;52.772;-3.890;2023-03-05T09:37:21;3.23;;;1.50;;
25435;SDS011;13363;52.772;-3.890;2023-03-05T09:39:47;3.07;;;1.80;;
25435;SDS011;13363;52.772;-3.890;2023-03-05T09:45:11;1.50;;;1.40;;
25435;SDS011;13363;52.772;-3.890;2023-03-05T09:55:44;2.37;;;1.80;;
25435;SDS011;13363;52.772;-3.890;2023-03-05T09:58:13;1.67;;;1.53;;
25435;SDS011;13363;52.772;-3.890;2023-03-05T10:01:03;1.90;;;1.80;;
25435;SDS011;13363;52.772;-3.890;2023-03-05T10:09:05;1.70;;;1.70;;
25435;SDS011;13363;52.772;-3.890;2023-03-05T10:12:00;2.23;;;2.13;;
25435;SDS011;13363;52.772;-3.890;2023-03-05T10:14:35;2.30;;;2.10;;
25435;SDS011;13363;52.772;-3.890;2023-03-05T10:28:20;2.50;;;2.30;;
25435;SDS011;13363;52.772;-3.890;2023-03-05T10:31:04;3.93;;;2.27;;
25435;SDS011;13363;52.772;-3.890;2023-03-05T10:33:56;3.47;;;2.23;;
25435;SDS011;13363;52.772;-3.890;2023-03-05T10:36:45;2.00;;;2.00;;
25435;SDS011;13363;52.772;-3.890;2023-03-05T10:42:04;3.73;;;2.43;;
25435;SDS011;13363;52.772;-3.890;2023-03-05T10:44:52;3.63;;;2.30;;
25435;SDS011;13363;52.772;-3.890;2023-03-05T10:47:24;3.23;;;2.30;;
25435;SDS011;13363;52.772;-3.890;2023-03-05T10:49:56;2.23;;;2.13;;
25435;SDS011;13363;52.772;-3.890;2023-03-05T10:52:34;4.43;;;2.27;;
25435;SDS011;13363;52.772;-3.890;2023-03-05T10:55:14;3.47;;;2.37;;
25435;SDS011;13363;52.772;-3.890;2023-03-05T10:57:42;2.20;;;2.00;;
25435;SDS011;13363;52.772;-3.890;2023-03-05T11:02:58;2.40;;;2.17;;
25435;SDS011;13363;52.772;-3.890;2023-03-05T11:05:47;2.83;;;2.17;;
25435;SDS011;13363;52.772;-3.890;2023-03-05T11:08:23;2.17;;;2.00;;
25435;SDS011;13363;52.772;-3.890;2023-03-05T11:13:35;2.47;;;2.27;;
25435;SDS011;13363;52.772;-3.890;2023-03-05T11:16:04;4.03;;;2.10;;
25435;SDS011;13363;52.772;-3.890;2023-03-05T11:18:31;3.13;;;2.10;;
25435;SDS011;13363;52.772;-3.890;2023-03-05T11:26:50;2.47;;;2.27;;
25435;SDS011;13363;52.772;-3.890;2023-03-05T11:29:20;2.23;;;2.10;;
25435;SDS011;13363;52.772;-3.890;2023-03-05T11:31:48;2.50;;;2.20;;
25435;SDS011;13363;52.772;-3.890;2023-03-05T11:39:24;1.80;;;1.70;;
25435;SDS011;13363;52.772;-3.890;2023-03-05T11:41:58;2.37;;;1.80;;
25435;SDS011;13363;52.772;-3.890;2023-03-05T11:44:33;2.90;;;1.80;;
25435;SDS011;13363;52.772;-3.890;2023-03-05T11:47:22;2.13;;;1.70;;
25435;SDS011;13363;52.772;-3.890;2023-03-05T11:50:34;2.97;;;2.00;;
25435;SDS011;13363;52.772;-3.890;2023-03-05T11:52:50;1.50;;;1.40;;
25435;SDS011;13363;52.772;-3.890;2023-03-05T11:58:16;1.10;;;1.07;;
25435;SDS011;13363;52.772;-3.890;2023-03-05T12:00:55;1.70;;;1.60;;
25435;SDS011;13363;52.772;-3.890;2023-03-05T12:03:24;1.00;;;1.00;;
25435;SDS011;13363;52.772;-3.890;2023-03-05T12:06:08;5.07;;;1.50;;
25435;SDS011;13363;52.772;-3.890;2023-03-05T12:08:35;3.63;;;1.77;;
25435;SDS011;13363;52.772;-3.890;2023-03-05T12:11:26;2.77;;;1.30;;
25435;SDS011;13363;52.772;-3.890;2023-03-05T12:13:53;2.93;;;1.63;;
25435;SDS011;13363;52.772;-3.890;2023-03-05T12:16:25;1.77;;;1.40;;
25435;SDS011;13363;52.772;-3.890;2023-03-05T12:21:40;0.60;;;0.60;;
25435;SDS011;13363;52.772;-3.890;2023-03-05T12:29:39;2.07;;;1.00;;
25435;SDS011;13363;52.772;-3.890;2023-03-05T12:32:13;1.90;;;1.00;;
25435;SDS011;13363;52.772;-3.890;2023-03-05T12:45:23;0.80;;;0.80;;
25435;SDS011;13363;52.772;-3.890;2023-03-05T13:03:29;2.30;;;2.10;;
25435;SDS011;13363;52.772;-3.890;2023-03-05T13:06:00;3.00;;;2.43;;
25435;SDS011;13363;52.772;-3.890;2023-03-05T13:08:32;2.13;;;2.03;;
25435;SDS011;13363;52.772;-3.890;2023-03-05T13:11:01;2.40;;;2.20;;
25435;SDS011;13363;52.772;-3.890;2023-03-05T13:13:36;1.90;;;1.73;;
25435;SDS011;13363;52.772;-3.890;2023-03-05T13:16:16;1.67;;;1.57;;
25435;SDS011;13363;52.772;-3.890;2023-03-05T13:18:55;1.10;;;1.10;;
25435;SDS011;13363;52.772;-3.890;2023-03-05T13:21:27;0.87;;;0.83;;
25435;SDS011;13363;52.772;-3.890;2023-03-05T13:23:58;0.97;;;0.70;;
25435;SDS011;13363;52.772;-3.890;2023-03-05T13:26:31;1.37;;;0.60;;
25435;SDS011;13363;52.772;-3.890;2023-03-05T13:29:06;0.70;;;0.70;;
25435;SDS011;13363;52.772;-3.890;2023-03-05T13:34:33;0.77;;;0.77;;
25435;SDS011;13363;52.772;-3.890;2023-03-05T13:37:18;0.93;;;0.93;;
25435;SDS011;13363;52.772;-3.890;2023-03-05T13:39:48;0.73;;;0.73;;
25435;SDS011;13363;52.772;-3.890;2023-03-05T13:42:34;0.80;;;0.80;;
25435;SDS011;13363;52.772;-3.890;2023-03-05T13:47:32;0.70;;;0.70;;
25435;SDS011;13363;52.772;-3.890;2023-03-05T13:50:01;0.90;;;0.90;;
25435;SDS011;13363;52.772;-3.890;2023-03-05T13:52:34;1.07;;;1.00;;
25435;SDS011;13363;52.772;-3.890;2023-03-05T13:55:04;1.67;;;0.93;;
25435;SDS011;13363;52.772;-3.890;2023-03-05T13:57:39;0.73;;;0.73;;
25435;SDS011;13363;52.772;-3.890;2023-03-05T14:05:46;1.17;;;1.17;;
25435;SDS011;13363;52.772;-3.890;2023-03-05T14:08:20;1.17;;;1.17;;
25435;SDS011;13363;52.772;-3.890;2023-03-05T14:10:52;0.90;;;0.90;;
25435;SDS011;13363;52.772;-3.890;2023-03-05T14:13:22;1.10;;;1.10;;
25435;SDS011;13363;52.772;-3.890;2023-03-05T14:18:57;0.90;;;0.90;;
25435;SDS011;13363;52.772;-3.890;2023-03-05T14:21:41;2.20;;;1.00;;
25435;SDS011;13363;52.772;-3.890;2023-03-05T14:24:13;1.10;;;1.10;;
25435;SDS011;13363;52.772;-3.890;2023-03-05T14:26:47;1.80;;;1.30;;
25435;SDS011;13363;52.772;-3.890;2023-03-05T14:29:20;1.07;;;1.07;;
25435;SDS011;13363;52.772;-3.890;2023-03-05T14:34:20;1.40;;;1.40;;
25435;SDS011;13363;52.772;-3.890;2023-03-05T14:36:47;2.13;;;1.07;;
25435;SDS011;13363;52.772;-3.890;2023-03-05T14:39:27;1.73;;;1.30;;
25435;SDS011;13363;52.772;-3.890;2023-03-05T14:44:54;1.63;;;1.40;;
25435;SDS011;13363;52.772;-3.890;2023-03-05T14:47:22;1.27;;;1.27;;
25435;SDS011;13363;52.772;-3.890;2023-03-05T14:49:49;1.57;;;1.47;;
25435;SDS011;13363;52.772;-3.890;2023-03-05T14:52:17;1.40;;;1.37;;
25435;SDS011;13363;52.772;-3.890;2023-03-05T14:54:46;1.70;;;1.60;;
25435;SDS011;13363;52.772;-3.890;2023-03-05T14:57:17;1.50;;;1.40;;
25435;SDS011;13363;52.772;-3.890;2023-03-05T14:59:48;1.60;;;1.50;;
25435;SDS011;13363;52.772;-3.890;2023-03-05T15:02:15;1.30;;;1.20;;
25435;SDS011;13363;52.772;-3.890;2023-03-05T15:04:45;2.20;;;1.60;;
25435;SDS011;13363;52.772;-3.890;2023-03-05T15:07:16;1.30;;;1.30;;
25435;SDS011;13363;52.772;-3.890;2023-03-05T15:09:47;1.43;;;1.43;;
25435;SDS011;13363;52.772;-3.890;2023-03-05T15:12:15;1.60;;;1.50;;
25435;SDS011;13363;52.772;-3.890;2023-03-05T15:14:42;1.50;;;1.50;;
25435;SDS011;13363;52.772;-3.890;2023-03-05T15:17:13;1.60;;;1.50;;
25435;SDS011;13363;52.772;-3.890;2023-03-05T15:19:45;1.47;;;1.47;;
25435;SDS011;13363;52.772;-3.890;2023-03-05T15:22:14;1.57;;;1.47;;
25435;SDS011;13363;52.772;-3.890;2023-03-05T15:24:41;1.00;;;1.00;;
25435;SDS011;13363;52.772;-3.890;2023-03-05T15:27:09;1.00;;;1.00;;
25435;SDS011;13363;52.772;-3.890;2023-03-05T15:29:36;4.13;;;1.33;;
25435;SDS011;13363;52.772;-3.890;2023-03-05T15:32:03;1.40;;;1.30;;
25435;SDS011;13363;52.772;-3.890;2023-03-05T15:34:29;1.20;;;1.10;;
25435;SDS011;13363;52.772;-3.890;2023-03-05T15:36:57;1.10;;;1.10;;
25435;SDS011;13363;52.772;-3.890;2023-03-05T15:39:24;1.47;;;1.37;;
25435;SDS011;13363;52.772;-3.890;2023-03-05T15:41:50;1.33;;;1.33;;
25435;SDS011;13363;52.772;-3.890;2023-03-05T15:44:17;1.30;;;1.30;;
25435;SDS011;13363;52.772;-3.890;2023-03-05T15:46:43;1.57;;;1.47;;
25435;SDS011;13363;52.772;-3.890;2023-03-05T15:49:09;1.33;;;1.30;;
25435;SDS011;13363;52.772;-3.890;2023-03-05T15:51:35;1.10;;;1.10;;
25435;SDS011;13363;52.772;-3.890;2023-03-05T15:54:01;1.60;;;1.50;;
25435;SDS011;13363;52.772;-3.890;2023-03-05T15:56:26;2.57;;;1.67;;
25435;SDS011;13363;52.772;-3.890;2023-03-05T15:58:52;1.80;;;1.70;;
25435;SDS011;13363;52.772;-3.890;2023-03-05T16:01:18;2.57;;;1.57;;
25435;SDS011;13363;52.772;-3.890;2023-03-05T16:03:45;1.97;;;1.50;;
25435;SDS011;13363;52.772;-3.890;2023-03-05T16:06:11;1.47;;;1.37;;
25435;SDS011;13363;52.772;-3.890;2023-03-05T16:08:40;1.57;;;1.47;;
25435;SDS011;13363;52.772;-3.890;2023-03-05T16:11:09;1.40;;;1.30;;
25435;SDS011;13363;52.772;-3.890;2023-03-05T16:13:36;1.87;;;1.77;;
25435;SDS011;13363;52.772;-3.890;2023-03-05T16:16:03;2.33;;;1.70;;
25435;SDS011;13363;52.772;-3.890;2023-03-05T16:18:32;1.80;;;1.70;;
25435;SDS011;13363;52.772;-3.890;2023-03-05T16:21:01;1.60;;;1.50;;
25435;SDS011;13363;52.772;-3.890;2023-03-05T16:23:28;1.97;;;1.87;;
25435;SDS011;13363;52.772;-3.890;2023-03-05T16:25:55;3.30;;;1.93;;
25435;SDS011;13363;52.772;-3.890;2023-03-05T16:28:22;2.27;;;1.87;;